createdAt,value
2023-03-06T00:00:21.392Z,7.36
2023-03-06T00:02:47.873Z,7.59
2023-03-06T00:05:14.249Z,7.19
2023-03-06T00:07:40.574Z,7.13
2023-03-06T00:10:06.914Z,7.25
2023-03-06T00:12:33.295Z,6.75
2023-03-06T00:14:59.674Z,7.00
2023-03-06T00:17:25.989Z,6.77
2023-03-06T00:19:52.300Z,7.16
2023-03-06T00:22:18.645Z,6.82
2023-03-06T00:24:45.002Z,6.50
2023-03-06T00:27:11.368Z,6.76
2023-03-06T00:29:37.687Z,6.58
2023-03-06T00:32:04.067Z,6.54
2023-03-06T00:34:30.411Z,6.63
2023-03-06T00:36:56.760Z,6.59
2023-03-06T00:39:23.146Z,6.15
2023-03-06T00:41:49.517Z,6.37
2023-03-06T00:44:15.978Z,6.26
2023-03-06T00:46:42.330Z,6.06
2023-03-06T00:49:08.665Z,6.12
2023-03-06T00:51:35.156Z,6.00
2023-03-06T00:54:01.509Z,6.14
2023-03-06T00:56:27.867Z,6.27
2023-03-06T00:58:54.302Z,6.08
2023-03-06T01:01:20.674Z,6.05
2023-03-06T01:03:47.016Z,6.04
2023-03-06T01:06:13.370Z,5.74
2023-03-06T01:08:39.725Z,5.91
2023-03-06T01:11:06.094Z,5.53
2023-03-06T01:13:32.402Z,5.73
2023-03-06T01:15:58.744Z,5.73
2023-03-06T01:18:25.111Z,5.68
2023-03-06T01:20:51.481Z,5.73
2023-03-06T01:23:17.837Z,5.68
2023-03-06T01:25:44.193Z,5.75
2023-03-06T01:28:10.498Z,5.64
2023-03-06T01:30:36.843Z,5.90
2023-03-06T01:33:03.208Z,5.69
2023-03-06T01:35:29.582Z,5.96
2023-03-06T01:37:55.954Z,5.60
2023-03-06T01:40:22.291Z,5.56
2023-03-06T01:42:48.638Z,5.92
2023-03-06T01:45:14.999Z,5.67
2023-03-06T01:47:41.358Z,5.53
2023-03-06T01:50:07.730Z,5.69
2023-03-06T01:52:34.099Z,5.34
2023-03-06T01:55:00.391Z,5.35
2023-03-06T01:57:26.707Z,5.20
2023-03-06T01:59:53.149Z,5.34
2023-03-06T02:02:19.583Z,5.52
2023-03-06T02:04:45.956Z,5.10
2023-03-06T02:07:12.384Z,5.10
2023-03-06T02:09:38.698Z,5.08
2023-03-06T02:12:05.011Z,5.24
2023-03-06T02:14:31.365Z,5.20
2023-03-06T02:16:57.791Z,5.56
2023-03-06T02:19:24.139Z,5.24
2023-03-06T02:21:50.512Z,5.17
2023-03-06T02:24:16.870Z,5.35
2023-03-06T02:26:43.226Z,5.42
2023-03-06T02:29:09.629Z,5.02
2023-03-06T02:31:36.039Z,5.08
2023-03-06T02:34:02.374Z,5.30
2023-03-06T02:36:28.717Z,5.31
2023-03-06T02:38:55.041Z,5.40
2023-03-06T02:41:21.386Z,5.26
2023-03-06T02:43:47.709Z,5.17
2023-03-06T02:46:14.188Z,5.06
2023-03-06T02:48:40.516Z,5.36
2023-03-06T02:51:06.904Z,5.00
2023-03-06T02:53:33.275Z,5.22
2023-03-06T02:55:59.598Z,5.15
2023-03-06T02:58:25.910Z,5.01
2023-03-06T03:00:52.299Z,5.13
2023-03-06T03:03:18.659Z,5.23
2023-03-06T03:05:45.040Z,5.39
2023-03-06T03:08:11.375Z,5.36
2023-03-06T03:10:37.744Z,5.10
2023-03-06T03:13:04.121Z,5.00
2023-03-06T03:15:30.538Z,5.13
2023-03-06T03:17:56.875Z,5.06
2023-03-06T03:20:23.202Z,5.18
2023-03-06T03:22:49.568Z,5.26
2023-03-06T03:25:15.948Z,5.39
2023-03-06T03:27:42.328Z,5.09
2023-03-06T03:30:08.736Z,4.86
2023-03-06T03:32:35.146Z,4.84
2023-03-06T03:35:01.529Z,5.23
2023-03-06T03:37:27.832Z,4.91
2023-03-06T03:39:54.136Z,5.13
2023-03-06T03:42:20.596Z,5.13
2023-03-06T03:44:46.960Z,5.11
2023-03-06T03:47:13.314Z,5.26
2023-03-06T03:49:39.647Z,5.15
2023-03-06T03:52:06.007Z,5.08
2023-03-06T03:54:32.382Z,5.10
2023-03-06T03:56:58.753Z,5.12
2023-03-06T03:59:25.123Z,5.22
2023-03-06T04:01:51.537Z,5.25
2023-03-06T04:04:17.897Z,5.27
2023-03-06T04:06:44.251Z,5.46
2023-03-06T04:09:10.583Z,5.16
2023-03-06T04:11:36.959Z,5.18
2023-03-06T04:14:03.331Z,5.37
2023-03-06T04:16:29.740Z,5.01
2023-03-06T04:18:56.114Z,5.26
2023-03-06T04:21:22.418Z,5.28
2023-03-06T04:23:48.811Z,5.31
2023-03-06T04:26:15.173Z,5.36
2023-03-06T04:28:41.601Z,5.20
2023-03-06T04:31:08.002Z,5.29
2023-03-06T04:33:34.373Z,5.30
2023-03-06T04:36:00.684Z,5.41
2023-03-06T04:38:27.048Z,5.41
2023-03-06T04:40:53.365Z,5.11
2023-03-06T04:43:19.889Z,5.08
2023-03-06T04:45:46.231Z,5.28
2023-03-06T04:48:12.627Z,5.52
2023-03-06T04:50:38.960Z,5.55
2023-03-06T04:53:05.295Z,5.30
2023-03-06T04:55:31.660Z,5.20
2023-03-06T04:57:57.984Z,5.53
2023-03-06T05:00:24.289Z,5.22
2023-03-06T05:02:50.628Z,5.28
2023-03-06T05:05:16.997Z,5.58
2023-03-06T05:07:43.357Z,5.42
2023-03-06T05:10:09.693Z,5.51
2023-03-06T05:12:36.031Z,5.33
2023-03-06T05:15:02.341Z,5.24
2023-03-06T05:17:28.806Z,5.45
2023-03-06T05:19:55.138Z,5.61
2023-03-06T05:22:21.502Z,5.58
2023-03-06T05:24:47.831Z,5.82
2023-03-06T05:27:16.834Z,5.31
2023-03-06T05:29:43.260Z,5.51
2023-03-06T05:32:09.766Z,5.37
2023-03-06T05:34:36.151Z,5.30
2023-03-06T05:37:02.500Z,5.61
2023-03-06T05:39:28.862Z,5.77
2023-03-06T05:41:55.222Z,5.41
2023-03-06T05:44:21.567Z,5.54
2023-03-06T05:46:47.924Z,5.64
2023-03-06T05:49:14.292Z,5.53
2023-03-06T05:51:40.671Z,5.33
2023-03-06T05:54:07.023Z,5.72
2023-03-06T05:56:33.388Z,5.58
2023-03-06T05:58:59.785Z,5.39
2023-03-06T06:01:26.119Z,5.62
2023-03-06T06:03:52.563Z,5.47
2023-03-06T06:06:18.975Z,5.59
2023-03-06T06:08:45.323Z,5.36
2023-03-06T06:11:11.674Z,5.44
2023-03-06T06:13:38.006Z,5.60
2023-03-06T06:16:04.381Z,5.41
2023-03-06T06:18:30.735Z,5.38
2023-03-06T06:20:57.099Z,5.31
2023-03-06T06:23:23.486Z,5.22
2023-03-06T06:25:49.827Z,5.28
2023-03-06T06:28:16.163Z,5.46
2023-03-06T06:30:42.469Z,5.36
2023-03-06T06:33:08.774Z,5.47
2023-03-06T06:35:36.251Z,5.43
2023-03-06T06:38:02.678Z,5.38
2023-03-06T06:40:29.004Z,5.25
2023-03-06T06:42:55.350Z,5.37
2023-03-06T06:45:21.692Z,5.71
2023-03-06T06:47:48.055Z,5.67
2023-03-06T06:50:14.471Z,5.65
2023-03-06T06:52:40.952Z,5.74
2023-03-06T06:55:07.327Z,6.55
2023-03-06T06:57:33.662Z,6.86
2023-03-06T07:00:00.044Z,6.83
2023-03-06T07:02:26.360Z,6.88
2023-03-06T07:05:03.778Z,6.72
2023-03-06T07:07:30.756Z,6.11
2023-03-06T07:09:57.120Z,6.13
2023-03-06T07:12:23.468Z,6.13
2023-03-06T07:14:49.855Z,6.06
2023-03-06T07:17:16.213Z,5.95
2023-03-06T07:19:42.623Z,6.26
2023-03-06T07:22:09.017Z,6.06
2023-03-06T07:24:35.361Z,6.13
2023-03-06T07:27:01.718Z,5.71
2023-03-06T07:29:28.106Z,5.63
2023-03-06T07:31:54.430Z,5.56
2023-03-06T07:34:20.772Z,5.10
2023-03-06T07:36:47.106Z,5.32
2023-03-06T07:39:13.490Z,5.31
2023-03-06T07:41:39.822Z,5.21
2023-03-06T07:44:06.175Z,5.11
2023-03-06T07:46:32.564Z,4.93
2023-03-06T07:48:58.937Z,4.95
2023-03-06T07:51:25.323Z,5.11
2023-03-06T07:53:51.630Z,5.17
2023-03-06T07:56:18.011Z,4.65
2023-03-06T07:58:44.496Z,4.75
2023-03-06T08:01:10.873Z,4.94
2023-03-06T08:03:37.248Z,4.78
2023-03-06T08:06:03.619Z,4.78
2023-03-06T08:08:29.967Z,4.81
2023-03-06T08:10:56.353Z,4.60
2023-03-06T08:13:22.675Z,4.74
2023-03-06T08:15:49.031Z,4.75
2023-03-06T08:18:15.378Z,5.13
2023-03-06T08:20:41.712Z,5.07
2023-03-06T08:23:08.060Z,5.10
2023-03-06T08:25:34.401Z,5.23
2023-03-06T08:28:01.090Z,5.37
2023-03-06T08:30:27.545Z,5.63
2023-03-06T08:32:53.908Z,6.06
2023-03-06T08:35:20.463Z,6.04
2023-03-06T08:37:46.902Z,6.23
2023-03-06T08:40:13.297Z,6.75
2023-03-06T08:42:39.684Z,6.70
2023-03-06T08:45:06.020Z,7.01
2023-03-06T08:47:32.411Z,7.16
2023-03-06T08:50:00.208Z,7.58
2023-03-06T08:52:27.058Z,7.75
2023-03-06T08:54:53.558Z,7.79
2023-03-06T08:57:19.900Z,7.80
2023-03-06T08:59:46.229Z,7.97
2023-03-06T09:02:12.588Z,7.84
2023-03-06T09:04:39.037Z,7.71
2023-03-06T09:07:05.347Z,7.56
2023-03-06T09:09:31.717Z,7.29
2023-03-06T09:11:58.090Z,7.05
2023-03-06T09:14:24.443Z,6.99
2023-03-06T09:16:50.840Z,7.31
2023-03-06T09:19:17.231Z,6.72
2023-03-06T09:21:43.598Z,6.89
2023-03-06T09:24:10.044Z,6.77
2023-03-06T09:26:45.384Z,6.37
2023-03-06T09:29:12.769Z,6.19
2023-03-06T09:31:39.153Z,6.78
2023-03-06T09:34:05.480Z,6.57
2023-03-06T09:36:34.400Z,6.23
2023-03-06T09:39:06.627Z,6.28
2023-03-06T09:41:32.989Z,6.14
2023-03-06T09:43:59.372Z,6.12
2023-03-06T09:46:25.873Z,5.61
2023-03-06T09:48:52.204Z,5.90
2023-03-06T09:51:18.525Z,6.07
2023-03-06T09:53:44.869Z,5.48
2023-03-06T09:56:11.194Z,5.57
2023-03-06T09:58:37.514Z,5.24
2023-03-06T10:01:03.861Z,5.51
2023-03-06T10:03:30.276Z,5.57
2023-03-06T10:05:56.660Z,5.51
2023-03-06T10:08:23.024Z,5.21
2023-03-06T10:10:49.366Z,5.40
2023-03-06T10:13:15.846Z,5.18
2023-03-06T10:15:42.253Z,4.78
2023-03-06T10:18:08.581Z,4.85
2023-03-06T10:20:34.934Z,5.00
2023-03-06T10:23:04.983Z,4.82
2023-03-06T10:25:31.668Z,4.87
2023-03-06T10:27:58.053Z,4.67
2023-03-06T10:30:24.439Z,4.83
2023-03-06T10:32:50.823Z,4.93
2023-03-06T10:35:17.296Z,4.88
2023-03-06T10:37:43.699Z,4.86
2023-03-06T10:40:10.102Z,4.69
2023-03-06T10:42:36.486Z,4.94
2023-03-06T10:45:02.926Z,4.72
2023-03-06T10:47:29.285Z,4.59
2023-03-06T10:49:55.631Z,4.70
2023-03-06T10:52:21.986Z,4.70
2023-03-06T10:54:48.317Z,4.87
2023-03-06T10:57:14.688Z,4.70
2023-03-06T10:59:41.048Z,4.65
2023-03-06T11:02:07.370Z,4.51
2023-03-06T11:04:33.772Z,4.86
2023-03-06T11:07:00.167Z,4.70
2023-03-06T11:09:26.535Z,6.31
2023-03-06T11:11:52.972Z,11.86
2023-03-06T11:14:19.338Z,8.63
2023-03-06T11:16:45.753Z,7.80
2023-03-06T11:19:12.115Z,7.49
2023-03-06T11:21:38.462Z,7.20
2023-03-06T11:24:04.802Z,7.20
2023-03-06T11:26:31.169Z,7.39
2023-03-06T11:28:57.574Z,8.59
2023-03-06T11:31:24.019Z,43.25
2023-03-06T11:33:50.356Z,36.14
2023-03-06T11:36:16.692Z,30.02
2023-03-06T11:38:43.051Z,28.72
2023-03-06T11:41:09.420Z,25.98
2023-03-06T11:43:35.773Z,23.48
2023-03-06T11:46:02.164Z,21.58
2023-03-06T11:48:28.511Z,19.79
2023-03-06T11:50:54.841Z,19.44
2023-03-06T11:53:21.169Z,17.88
2023-03-06T11:55:47.510Z,16.78
2023-03-06T11:58:13.857Z,15.65
2023-03-06T12:00:40.184Z,15.13
2023-03-06T12:03:06.533Z,14.62
2023-03-06T12:05:32.922Z,14.22
2023-03-06T12:07:59.264Z,14.24
2023-03-06T12:10:25.611Z,13.73
2023-03-06T12:12:51.932Z,12.91
2023-03-06T12:15:18.255Z,12.77
2023-03-06T12:17:44.593Z,12.42
2023-03-06T12:20:11.081Z,11.91
2023-03-06T12:22:37.401Z,11.91
2023-03-06T12:25:03.847Z,11.43
2023-03-06T12:27:30.246Z,11.56
2023-03-06T12:29:56.604Z,11.31
2023-03-06T12:32:23.025Z,11.01
2023-03-06T12:34:49.509Z,10.55
2023-03-06T12:37:16.036Z,30.84
2023-03-06T12:39:42.397Z,47.98
2023-03-06T12:42:17.864Z,34.65
2023-03-06T12:44:48.897Z,33.00
2023-03-06T12:47:15.435Z,31.56
2023-03-06T12:49:41.749Z,27.96
2023-03-06T12:52:08.234Z,24.26
2023-03-06T12:54:34.637Z,21.46
2023-03-06T12:57:01.046Z,18.74
2023-03-06T12:59:28.386Z,16.40
2023-03-06T13:01:54.787Z,14.49
2023-03-06T13:04:21.194Z,12.80
2023-03-06T13:06:50.743Z,11.64
2023-03-06T13:09:17.516Z,10.63
2023-03-06T13:11:43.857Z,9.92
2023-03-06T13:14:10.175Z,8.92
2023-03-06T13:16:36.508Z,8.50
2023-03-06T13:19:02.898Z,7.90
2023-03-06T13:21:29.252Z,7.21
2023-03-06T13:23:55.550Z,6.75
2023-03-06T13:26:21.847Z,6.83
2023-03-06T13:28:48.171Z,6.28
2023-03-06T13:31:26.420Z,5.99
2023-03-06T13:33:53.733Z,5.77
2023-03-06T13:36:20.234Z,5.71
2023-03-06T13:38:46.907Z,5.45
2023-03-06T13:41:13.230Z,5.53
2023-03-06T13:43:39.584Z,5.24
2023-03-06T13:46:05.970Z,5.29
2023-03-06T13:48:47.712Z,5.10
2023-03-06T13:51:14.073Z,5.04
2023-03-06T13:53:40.661Z,4.69
2023-03-06T13:56:07.104Z,4.98
2023-03-06T13:58:33.502Z,4.76
2023-03-06T14:00:59.858Z,4.61
2023-03-06T14:03:26.213Z,4.80
2023-03-06T14:05:52.552Z,4.66
2023-03-06T14:08:18.916Z,4.92
2023-03-06T14:10:45.255Z,4.62
2023-03-06T14:13:11.557Z,4.98
2023-03-06T14:15:37.986Z,5.35
2023-03-06T14:18:04.387Z,4.99
2023-03-06T14:20:30.749Z,5.11
2023-03-06T14:22:57.054Z,4.73
2023-03-06T14:25:23.353Z,4.74
2023-03-06T14:27:49.679Z,4.85
2023-03-06T14:30:16.053Z,5.00
2023-03-06T14:32:42.431Z,4.76
2023-03-06T14:35:08.818Z,4.72
2023-03-06T14:37:35.186Z,4.64
2023-03-06T14:40:01.631Z,4.89
2023-03-06T14:42:28.018Z,4.75
2023-03-06T14:44:54.395Z,4.69
2023-03-06T14:47:20.860Z,4.79
2023-03-06T14:49:47.198Z,5.11
2023-03-06T14:52:13.560Z,5.03
2023-03-06T14:54:39.936Z,5.10
2023-03-06T14:57:06.390Z,6.02
2023-03-06T14:59:32.853Z,7.13
2023-03-06T15:01:59.350Z,6.18
2023-03-06T15:04:25.760Z,5.51
2023-03-06T15:06:52.183Z,5.32
2023-03-06T15:09:18.584Z,4.98
2023-03-06T15:11:44.975Z,4.95
2023-03-06T15:14:11.470Z,4.97
2023-03-06T15:16:37.914Z,4.84
2023-03-06T15:19:04.351Z,4.70
2023-03-06T15:21:30.902Z,8.97
2023-03-06T15:23:57.291Z,44.26
2023-03-06T15:26:23.699Z,38.70
2023-03-06T15:28:52.187Z,24.99
2023-03-06T15:31:20.788Z,12.59
2023-03-06T15:33:47.360Z,9.36
2023-03-06T15:36:13.691Z,7.59
2023-03-06T15:38:40.112Z,7.38
2023-03-06T15:41:06.487Z,6.76
2023-03-06T15:43:32.873Z,6.27
2023-03-06T15:45:59.587Z,6.21
2023-03-06T15:48:26.007Z,5.96
2023-03-06T15:50:52.387Z,5.82
2023-03-06T15:53:21.161Z,5.57
2023-03-06T15:55:47.559Z,5.30
2023-03-06T15:58:13.954Z,5.31
2023-03-06T16:00:40.463Z,5.07
2023-03-06T16:03:06.896Z,5.14
2023-03-06T16:05:33.267Z,5.24
2023-03-06T16:07:59.661Z,5.94
2023-03-06T16:10:26.062Z,5.51
2023-03-06T16:12:52.433Z,5.17
2023-03-06T16:15:18.845Z,4.81
2023-03-06T16:17:45.272Z,4.80
2023-03-06T16:20:11.634Z,4.44
2023-03-06T16:22:37.962Z,5.15
2023-03-06T16:25:04.296Z,4.83
2023-03-06T16:27:30.653Z,4.27
2023-03-06T16:29:57.012Z,4.10
2023-03-06T16:32:23.367Z,4.20
2023-03-06T16:34:49.719Z,4.14
2023-03-06T16:37:16.050Z,3.85
2023-03-06T16:39:42.409Z,3.45
2023-03-06T16:42:08.782Z,3.49
2023-03-06T16:44:35.150Z,3.56
2023-03-06T16:47:01.515Z,3.35
2023-03-06T16:49:27.917Z,3.40
2023-03-06T16:51:54.318Z,3.46
2023-03-06T16:54:20.655Z,3.31
2023-03-06T16:56:47.045Z,3.53
2023-03-06T16:59:13.385Z,3.65
2023-03-06T17:01:39.798Z,3.35
2023-03-06T17:04:06.203Z,3.59
2023-03-06T17:06:32.527Z,3.17
2023-03-06T17:08:58.871Z,3.07
2023-03-06T17:11:25.197Z,3.07
2023-03-06T17:13:51.584Z,3.08
2023-03-06T17:16:18.101Z,3.12
2023-03-06T17:18:44.532Z,3.08
2023-03-06T17:21:10.861Z,2.95
2023-03-06T17:23:37.254Z,2.99
2023-03-06T17:26:03.608Z,2.78
2023-03-06T17:28:29.946Z,2.86
2023-03-06T17:30:56.299Z,2.87
2023-03-06T17:33:22.734Z,2.63
2023-03-06T17:35:49.140Z,2.77
2023-03-06T17:38:15.487Z,2.74
2023-03-06T17:40:41.835Z,2.79
2023-03-06T17:43:08.163Z,2.67
2023-03-06T17:45:34.483Z,2.58
2023-03-06T17:48:00.922Z,2.78
2023-03-06T17:50:27.288Z,2.63
2023-03-06T17:52:53.608Z,2.64
2023-03-06T17:55:19.977Z,2.36
2023-03-06T17:57:46.334Z,2.64
2023-03-06T18:00:12.703Z,2.43
2023-03-06T18:02:39.079Z,2.64
2023-03-06T18:05:05.445Z,2.67
2023-03-06T18:07:31.848Z,2.67
2023-03-06T18:09:58.228Z,3.37
2023-03-06T18:12:24.613Z,3.16
2023-03-06T18:14:50.940Z,2.91
2023-03-06T18:17:17.307Z,2.91
2023-03-06T18:19:43.657Z,3.02
2023-03-06T18:22:10.065Z,3.22
2023-03-06T18:24:36.415Z,3.02
2023-03-06T18:27:02.772Z,3.05
2023-03-06T18:29:29.184Z,3.06
2023-03-06T18:31:55.600Z,2.93
2023-03-06T18:34:21.990Z,3.22
2023-03-06T18:36:48.341Z,3.24
2023-03-06T18:39:14.706Z,4.86
2023-03-06T18:41:41.042Z,7.68
2023-03-06T18:44:07.376Z,5.03
2023-03-06T18:46:33.712Z,5.22
2023-03-06T18:49:00.028Z,4.83
2023-03-06T18:51:26.429Z,4.78
2023-03-06T18:53:52.794Z,4.99
2023-03-06T18:56:19.175Z,4.59
2023-03-06T18:58:45.555Z,4.53
2023-03-06T19:01:11.990Z,4.71
2023-03-06T19:03:38.364Z,4.50
2023-03-06T19:06:04.712Z,4.49
2023-03-06T19:08:31.097Z,4.56
2023-03-06T19:10:57.472Z,4.36
2023-03-06T19:13:23.826Z,4.31
2023-03-06T19:15:50.223Z,4.33
2023-03-06T19:18:16.615Z,4.49
2023-03-06T19:20:42.987Z,4.30
2023-03-06T19:23:09.353Z,4.37
2023-03-06T19:25:35.730Z,4.38
2023-03-06T19:28:02.063Z,4.30
2023-03-06T19:30:28.418Z,4.53
2023-03-06T19:32:54.844Z,4.46
2023-03-06T19:35:21.406Z,4.70
2023-03-06T19:37:47.807Z,4.63
2023-03-06T19:40:14.113Z,4.40
2023-03-06T19:42:40.440Z,4.33
2023-03-06T19:45:06.800Z,4.54
2023-03-06T19:47:33.253Z,4.81
2023-03-06T19:49:59.660Z,4.61
2023-03-06T19:52:26.070Z,4.42
2023-03-06T19:54:52.481Z,4.65
2023-03-06T19:57:18.786Z,4.71
2023-03-06T19:59:45.090Z,4.90
2023-03-06T20:02:11.458Z,4.66
2023-03-06T20:04:37.835Z,4.37
2023-03-06T20:07:04.230Z,4.70
2023-03-06T20:09:30.613Z,4.80
2023-03-06T20:11:56.935Z,4.79
2023-03-06T20:14:23.360Z,4.67
2023-03-06T20:16:50.131Z,4.56
2023-03-06T20:19:16.545Z,4.69
2023-03-06T20:21:42.955Z,4.76
2023-03-06T20:24:09.319Z,4.67
2023-03-06T20:26:35.630Z,4.63
2023-03-06T20:29:02.009Z,4.50
2023-03-06T20:31:28.422Z,4.68
2023-03-06T20:33:54.992Z,4.67
2023-03-06T20:36:21.349Z,4.62
2023-03-06T20:38:47.666Z,4.61
2023-03-06T20:41:14.108Z,4.57
2023-03-06T20:43:40.503Z,4.84
2023-03-06T20:46:06.835Z,4.66
2023-03-06T20:48:33.224Z,4.88
2023-03-06T20:50:59.863Z,4.90
2023-03-06T20:53:26.467Z,4.61
2023-03-06T20:55:52.893Z,4.89
2023-03-06T20:58:19.253Z,5.01
2023-03-06T21:00:45.579Z,4.96
2023-03-06T21:03:11.964Z,4.88
2023-03-06T21:05:38.318Z,5.09
2023-03-06T21:08:04.671Z,5.00
2023-03-06T21:10:30.991Z,5.11
2023-03-06T21:12:57.324Z,4.84
2023-03-06T21:15:23.632Z,5.29
2023-03-06T21:17:49.978Z,5.10
2023-03-06T21:20:16.370Z,4.79
2023-03-06T21:22:42.722Z,4.86
2023-03-06T21:25:09.012Z,5.22
2023-03-06T21:27:35.322Z,4.92
2023-03-06T21:30:01.663Z,5.05
2023-03-06T21:32:28.187Z,4.93
2023-03-06T21:34:54.587Z,4.93
2023-03-06T21:37:20.942Z,5.13
2023-03-06T21:39:47.316Z,4.82
2023-03-06T21:42:13.679Z,4.94
2023-03-06T21:44:40.012Z,4.85
2023-03-06T21:47:06.377Z,4.81
2023-03-06T21:49:32.685Z,4.98
2023-03-06T21:51:59.038Z,5.22
2023-03-06T21:54:25.367Z,4.86
2023-03-06T21:56:51.690Z,4.67
2023-03-06T21:59:18.050Z,4.71
2023-03-06T22:01:44.425Z,4.78
2023-03-06T22:04:10.779Z,4.87
2023-03-06T22:06:37.112Z,4.50
2023-03-06T22:09:03.516Z,4.76
2023-03-06T22:11:29.861Z,4.54
2023-03-06T22:13:56.203Z,4.33
2023-03-06T22:16:22.536Z,4.52
2023-03-06T22:18:48.948Z,4.55
2023-03-06T22:21:15.290Z,4.52
2023-03-06T22:23:41.660Z,4.47
2023-03-06T22:26:08.035Z,4.63
2023-03-06T22:28:34.374Z,4.52
2023-03-06T22:31:00.749Z,4.71
2023-03-06T22:33:27.125Z,4.44
2023-03-06T22:35:53.471Z,4.62
2023-03-06T22:38:19.779Z,4.77
2023-03-06T22:40:46.143Z,4.74
2023-03-06T22:43:12.473Z,4.64
2023-03-06T22:45:38.847Z,4.73
2023-03-06T22:48:10.955Z,4.75
2023-03-06T22:50:37.780Z,4.70
2023-03-06T22:53:04.173Z,4.79
2023-03-06T22:55:30.512Z,4.66
2023-03-06T22:57:56.875Z,4.74
2023-03-06T23:00:23.201Z,4.91
2023-03-06T23:02:49.521Z,5.12
2023-03-06T23:05:15.892Z,4.81
2023-03-06T23:07:42.233Z,4.92
2023-03-06T23:10:08.567Z,4.88
2023-03-06T23:12:34.952Z,4.77
2023-03-06T23:15:01.375Z,4.80
2023-03-06T23:17:27.777Z,4.98
2023-03-06T23:19:54.131Z,4.90
2023-03-06T23:22:20.498Z,4.75
2023-03-06T23:24:46.831Z,4.73
2023-03-06T23:27:13.214Z,4.76
2023-03-06T23:29:39.592Z,5.09
2023-03-06T23:32:05.994Z,4.82
2023-03-06T23:34:32.400Z,4.86
2023-03-06T23:36:58.753Z,4.86
2023-03-06T23:39:25.056Z,4.96
2023-03-06T23:41:51.400Z,4.80
2023-03-06T23:44:17.707Z,4.77
2023-03-06T23:46:44.198Z,4.57
2023-03-06T23:49:10.550Z,4.67
2023-03-06T23:51:36.864Z,5.01
2023-03-06T23:54:03.344Z,4.97
2023-03-06T23:56:29.720Z,4.64
2023-03-06T23:58:56.091Z,4.83
